FW4563 Weather Reports


time (UTC)temp
F
wind
direction
speed
knots
gust
knots
rain 1hr
in
rain 24hr
in
rain mn
in
humidity
%
barometer
mb
20220627205630 74 178 1.7 1.7 0.07 0.20 0.20 98 1017.6
20220627205129 74 299 0.9 0.9 0.11 0.20 0.20 99 1017.4
20220627204628 75 17 0.0 0.0 0.11 0.18 0.18 99 1017.4
20220627204128 75 334 0.0 0.0 0.11 0.18 0.18 99 1017.3
20220627203626 74 24 0.9 0.9 0.04 0.16 0.16 99 1017.2
20220627203125 74 316 0.0 0.9 0.11 0.16 0.16 98 1017.3
20220627202625 74 305 0.9 0.9 0.16 0.15 0.15 97 1017.3
20220627202121 74 331 0.9 0.9 0.16 0.13 0.13 97 1017.5
20220627201619 75 353 0.0 0.0 0.11 0.11 0.11 97 1017.2
20220627201119 75 238 0.9 0.9 0.18 0.09 0.09 96 1017.3
20220627200618 76 5 0.0 0.0 0.23 0.07 0.07 95 1017.3
20220627200117 77 279 0.0 0.9 0.35 0.05 0.05 93 1017.2
20220627195616 79 283 1.7 2.6 0.18 0.03 0.03 87 1016.7
20220627195115 82 242 0.9 0.9 0.00 0.00 0.00 78 1016.6
20220627194615 86 345 0.9 0.9 0.00 0.00 0.00 62 1016.3
20220627194114 86 329 1.7 1.7 0.00 0.00 0.00 59 1016.2
20220627193614 86 322 0.9 1.7 0.00 0.00 0.00 59 1016.2
20220627193113 86 244 1.7 2.6 0.00 0.00 0.00 59 1016.3
20220627192612 87 115 3.5 4.3 0.00 0.00 0.00 59 1016.2
20220627192111 87 333 1.7 1.7 0.00 0.00 0.00 59 1016.5
20220627191609 87 210 0.9 0.9 0.00 0.00 0.00 58 1016.4
20220627191108 89 212 0.0 0.9 0.00 0.00 0.00 57 1016.5
20220627190607 89 218 1.7 2.6 0.00 0.00 0.00 56 1016.6
20220627190106 89 290 1.7 1.7 0.00 0.00 0.00 55 1016.9
20220627185605 87 257 1.7 2.6 0.00 0.00 0.00 57 1016.9
20220627185104 87 4 1.7 2.6 0.00 0.00 0.00 57 1016.6
20220627184602 87 261 1.7 1.7 0.00 0.00 0.00 57 1016.7
20220627184100 87 7 0.9 0.9 0.00 0.00 0.00 57 1016.6
20220627183600 89 228 2.6 2.6 0.00 0.00 0.00 56 1016.5
20220627183100 89 184 1.7 1.7 0.00 0.00 0.00 56 1016.6
20220627182559 90 109 0.9 0.9 0.00 0.00 0.00 55 1016.8
20220627182058 89 210 1.7 2.6 0.00 0.00 0.00 57 1016.8
20220627181558 88 280 0.9 1.7 0.00 0.00 0.00 57 1016.7
20220627181057 88 235 3.5 6.1 0.00 0.00 0.00 57 1017.0
20220627180556 89 244 0.9 0.9 0.00 0.00 0.00 57 1016.9
20220627180055 88 185 4.3 5.2 0.00 0.00 0.00 57 1017.1
20220627175554 89 303 2.6 2.6 0.00 0.00 0.00 56 1017.1
20220627175054 89 210 3.5 5.2 0.00 0.00 0.00 56 1017.3
20220627174552 89 249 0.9 1.7 0.00 0.00 0.00 57 1017.3
20220627174051 91 287 1.7 1.7 0.00 0.00 0.00 53 1017.4
20220627173551 89 270 1.7 1.7 0.00 0.00 0.00 58 1017.5
20220627173051 88 309 1.7 2.6 0.00 0.00 0.00 57 1017.7
20220627172550 88 319 0.9 1.7 0.00 0.00 0.00 58 1017.8
20220627172048 88 264 2.6 2.6 0.00 0.00 0.00 58 1017.8
20220627171547 88 120 2.6 4.3 0.00 0.00 0.00 58 1017.9
20220627171046 88 0 2.6 5.2 0.00 0.00 0.00 59 1017.9
20220627170546 88 326 0.9 0.9 0.00 0.00 0.00 58 1018.1
20220627170045 86 303 0.0 0.0 0.00 0.00 0.00 61 1018.0
20220627165545 86 211 2.6 2.6 0.00 0.00 0.00 63 1018.1
20220627165044 85 289 1.7 1.7 0.00 0.00 0.00 61 1018.2
20220627164542 86 180 4.3 5.2 0.00 0.00 0.00 62 1018.4
20220627164041 86 335 2.6 2.6 0.00 0.00 0.00 62 1018.6
20220627163542 86 157 2.6 4.3 0.00 0.00 0.00 62 1018.4
20220627163041 86 346 1.7 2.6 0.00 0.00 0.00 62 1018.6
20220627162542 86 245 2.6 2.6 0.00 0.00 0.00 63 1018.7
20220627162041 87 324 0.9 1.7 0.00 0.00 0.00 61 1018.6
20220627161540 87 351 0.0 0.0 0.00 0.00 0.00 61 1018.7
20220627161039 88 126 0.9 1.7 0.00 0.00 0.00 59 1018.6
20220627160539 86 261 1.7 1.7 0.00 0.00 0.00 61 1018.5
20220627160038 88 241 1.7 1.7 0.00 0.00 0.00 58 1018.8
20220627155538 88 321 1.7 1.7 0.00 0.00 0.00 59 1018.8
20220627155036 87 301 0.9 1.7 0.00 0.00 0.00 59 1018.7
20220627154535 87 2 1.7 2.6 0.00 0.00 0.00 59 1018.6
20220627154034 86 268 1.7 4.3 0.00 0.00 0.00 60 1018.7
20220627153533 85 296 1.7 4.3 0.00 0.00 0.00 63 1018.5
20220627153032 85 206 0.9 2.6 0.00 0.00 0.00 65 1018.6
20220627152532 86 4 1.7 2.6 0.00 0.00 0.00 63 1018.4
20220627152031 85 294 1.7 1.7 0.00 0.00 0.00 63 1018.6
20220627151530 84 228 0.9 1.7 0.00 0.00 0.00 65 1018.7
20220627151030 84 333 0.9 0.9 0.00 0.00 0.00 65 1018.8
20220627150528 84 329 0.9 0.9 0.00 0.00 0.00 65 1018.9
20220627150027 84 44 0.9 1.7 0.00 0.00 0.00 66 1018.5
20220627145526 83 17 0.0 0.0 0.00 0.00 0.00 66 1018.6
20220627145026 84 190 2.6 5.2 0.00 0.00 0.00 66 1018.7
20220627144524 82 348 0.0 0.0 0.00 0.00 0.00 68 1018.7
20220627144023 82 347 0.9 0.9 0.00 0.00 0.00 68 1018.5
20220627143523 83 334 0.0 0.9 0.00 0.00 0.00 67 1018.6
20220627143022 82 197 1.7 1.7 0.00 0.00 0.00 68 1018.7
20220627142522 81 240 1.7 1.7 0.00 0.00 0.00 70 1018.8
20220627142022 80 190 2.6 4.3 0.00 0.00 0.00 70 1018.7
20220627141522 81 347 0.0 0.9 0.00 0.00 0.00 69 1018.9
20220627141021 81 329 2.6 2.6 0.00 0.00 0.00 70 1018.7
20220627140520 81 348 0.9 0.9 0.00 0.00 0.00 70 1018.6
20220627140018 81 332 0.0 0.0 0.00 0.00 0.00 69 1018.7
20220627135516 81 270 0.9 0.9 0.00 0.00 0.00 70 1018.7
20220627135014 80 201 3.5 4.3 0.00 0.00 0.00 72 1019.0
20220627134512 80 289 2.6 4.3 0.00 0.00 0.00 71 1018.9
20220627134011 80 310 0.9 0.9 0.00 0.00 0.00 72 1018.9
20220627133510 80 323 0.9 0.9 0.00 0.00 0.00 72 1018.9
20220627133010 79 313 0.0 0.9 0.00 0.00 0.00 73 1018.9
20220627132509 79 5 0.9 0.9 0.00 0.00 0.00 73 1019.0
20220627132007 80 228 0.9 0.9 0.00 0.00 0.00 73 1019.1
20220627131506 79 243 1.7 1.7 0.00 0.00 0.00 73 1018.8
20220627131006 79 280 1.7 2.6 0.00 0.00 0.00 74 1018.8
20220627130505 78 73 0.0 0.9 0.00 0.00 0.00 76 1019.1
20220627130004 79 138 0.9 1.7 0.00 0.00 0.00 75 1018.8
20220627125502 78 329 0.9 0.9 0.00 0.00 0.00 76 1018.8
20220627125001 78 322 0.0 0.9 0.00 0.00 0.00 77 1018.8
20220627124500 78 207 0.0 0.9 0.00 0.00 0.00 78 1019.0
20220627123959 77 320 0.9 0.9 0.00 0.00 0.00 79 1018.5
20220627123458 77 217 0.9 1.7 0.00 0.00 0.00 78 1018.8
20220627122957 77 64 0.9 1.7 0.00 0.00 0.00 79 1018.7
20220627122457 77 220 2.6 4.3 0.00 0.00 0.00 80 1018.6
20220627121956 77 145 0.0 0.9 0.00 0.00 0.00 80 1018.6
20220627121455 77 100 1.7 1.7 0.00 0.00 0.00 80 1018.4
20220627120954 76 196 0.0 0.9 0.00 0.00 0.00 81 1018.6
20220627120453 76 39 1.7 1.7 0.00 0.00 0.00 81 1018.5
20220627115952 76 192 1.7 1.7 0.00 0.00 0.00 81 1018.4
20220627115451 76 308 0.9 0.9 0.00 0.00 0.00 81 1018.6
20220627114951 76 299 0.0 0.9 0.00 0.00 0.00 81 1018.7
20220627114450 76 358 0.0 0.0 0.00 0.00 0.00 81 1018.6
20220627113950 76 190 2.6 4.3 0.00 0.00 0.00 81 1018.4
20220627113449 76 320 0.9 0.9 0.00 0.00 0.00 82 1018.5
20220627112949 75 358 0.9 0.9 0.00 0.00 0.00 82 1018.4
20220627112448 75 324 0.9 1.7 0.00 0.00 0.00 82 1018.4
20220627111947 75 351 0.9 0.9 0.00 0.00 0.00 82 1018.4
20220627111446 75 351 0.9 0.9 0.00 0.00 0.00 82 1018.4
20220627110946 75 15 0.0 0.9 0.00 0.00 0.00 82 1018.4
20220627110446 75 75 2.6 2.6 0.00 0.00 0.00 82 1018.4
20220627105945 75 308 0.0 0.9 0.00 0.00 0.00 82 1018.5
20220627105444 75 213 0.0 0.0 0.00 0.00 0.00 82 1018.5
20220627104943 75 349 0.0 0.0 0.00 0.00 0.00 82 1018.3
20220627104442 75 297 0.9 0.9 0.00 0.00 0.00 82 1018.3
20220627103942 75 278 1.7 1.7 0.00 0.00 0.00 82 1018.4
20220627103440 75 326 1.7 1.7 0.00 0.00 0.00 82 1018.6
20220627102938 75 121 0.9 0.9 0.00 0.00 0.00 82 1018.4
20220627102436 75 124 0.0 0.9 0.00 0.00 0.00 82 1018.4
20220627101935 75 304 0.0 0.0 0.00 0.00 0.00 82 1018.4
20220627101434 75 12 0.9 1.7 0.00 0.00 0.00 82 1018.4
20220627100934 75 320 0.9 0.9 0.00 0.00 0.00 82 1018.5
20220627100433 75 350 0.0 0.0 0.00 0.00 0.00 81 1018.3
20220627095933 75 120 1.7 1.7 0.00 0.00 0.00 81 1018.2
20220627095432 75 298 0.9 0.9 0.00 0.00 0.00 81 1018.2
20220627094931 75 321 0.9 1.7 0.00 0.00 0.00 81 1018.2
20220627094430 75 6 0.0 0.0 0.00 0.00 0.00 81 1018.3
20220627093929 75 330 0.0 0.9 0.00 0.00 0.00 81 1018.3
20220627093428 75 339 0.9 1.7 0.00 0.00 0.00 81 1018.5
20220627092926 75 340 0.0 0.9 0.00 0.00 0.00 80 1018.4
20220627092424 75 289 0.9 0.9 0.00 0.00 0.00 80 1018.3
20220627091923 75 146 0.9 1.7 0.00 0.00 0.00 80 1018.2
20220627091422 75 224 1.7 2.6 0.00 0.00 0.00 80 1018.2
20220627090922 76 47 0.0 0.0 0.00 0.00 0.00 80 1018.0
20220627090420 76 339 0.0 0.0 0.00 0.00 0.00 80 1018.3
20220627085920 76 136 2.6 2.6 0.00 0.00 0.00 80 1018.3
20220627085419 76 297 0.9 1.7 0.00 0.00 0.00 80 1018.3
20220627084918 76 258 0.9 1.7 0.00 0.00 0.00 80 1018.2
20220627084419 76 250 0.9 1.7 0.00 0.00 0.00 80 1018.2
20220627083918 76 143 1.7 1.7 0.00 0.00 0.00 80 1018.3
20220627083417 76 222 2.6 4.3 0.00 0.00 0.00 80 1018.5
20220627082917 76 339 0.0 0.0 0.00 0.00 0.00 80 1018.5
20220627082416 76 203 4.3 6.1 0.00 0.00 0.00 80 1018.1
20220627081916 76 192 2.6 2.6 0.00 0.00 0.00 79 1018.3
20220627081415 76 58 0.0 0.0 0.00 0.00 0.00 79 1018.4
20220627080915 76 259 0.0 0.9 0.00 0.00 0.00 79 1018.3
20220627080414 76 224 0.9 1.7 0.00 0.00 0.00 79 1018.6
20220627075913 76 208 2.6 5.2 0.00 0.00 0.00 79 1018.7
20220627075412 76 342 0.9 1.7 0.00 0.00 0.00 79 1018.7
20220627074911 76 158 0.9 0.9 0.00 0.00 0.00 78 1018.8
20220627074409 76 342 0.0 0.9 0.00 0.00 0.00 78 1018.6
20220627073907 76 277 0.9 0.9 0.00 0.00 0.00 78 1018.7
20220627073406 76 213 0.9 0.9 0.00 0.00 0.00 77 1018.7
20220627072906 77 219 0.9 1.7 0.00 0.00 0.00 77 1018.8
20220627072404 77 184 1.7 1.7 0.00 0.00 0.00 76 1019.0
20220627071903 77 11 0.0 0.9 0.00 0.00 0.00 76 1018.9
20220627071402 77 185 1.7 1.7 0.00 0.00 0.00 76 1019.1
20220627070901 77 297 0.9 1.7 0.00 0.00 0.00 76 1018.8
20220627070400 77 180 0.9 0.9 0.00 0.00 0.00 75 1019.1
20220627065859 77 226 2.6 2.6 0.00 0.00 0.00 75 1019.0
20220627065359 77 25 0.9 0.9 0.00 0.00 0.00 75 1019.1
20220627064858 77 194 4.3 5.2 0.00 0.00 0.00 75 1018.9
20220627064357 77 311 0.0 0.0 0.00 0.00 0.00 75 1018.7
20220627063856 77 112 2.6 4.3 0.00 0.00 0.00 75 1018.9
20220627063356 77 358 0.0 0.0 0.00 0.00 0.00 74 1019.1
20220627062855 77 210 0.0 0.9 0.00 0.00 0.00 74 1019.1
20220627062354 77 81 0.9 0.9 0.00 0.00 0.00 75 1019.1
20220627061853 77 53 0.9 0.9 0.00 0.00 0.00 74 1019.1
20220627061352 77 23 0.0 0.0 0.00 0.00 0.00 74 1019.0
20220627060851 77 167 1.7 2.6 0.00 0.00 0.00 74 1019.1
20220627060349 77 323 0.0 0.9 0.00 0.00 0.00 73 1019.2
20220627055848 77 212 2.6 2.6 0.00 0.00 0.00 73 1019.1
20220627055347 77 306 2.6 2.6 0.00 0.00 0.00 73 1019.3
20220627054847 77 243 2.6 2.6 0.00 0.00 0.00 73 1019.2
20220627054345 78 208 1.7 1.7 0.00 0.00 0.00 72 1019.1
20220627053845 78 336 0.9 0.9 0.00 0.00 0.00 73 1019.1
20220627053343 78 213 6.1 7.0 0.00 0.00 0.00 73 1019.4
20220627052842 78 66 0.9 0.9 0.00 0.00 0.00 73 1019.4
20220627052341 78 339 0.9 0.9 0.00 0.00 0.00 73 1019.5
20220627051839 78 187 0.9 0.9 0.00 0.00 0.00 73 1019.3
20220627051338 78 155 2.6 4.3 0.00 0.00 0.00 73 1019.5
20220627050836 78 222 2.6 5.2 0.00 0.00 0.00 73 1019.5
20220627050334 78 129 0.9 0.9 0.00 0.00 0.00 73 1019.5
20220627045834 78 358 0.9 0.9 0.00 0.00 0.00 73 1019.5
20220627045333 78 320 0.9 1.7 0.00 0.00 0.00 73 1019.6
20220627044831 78 16 0.0 0.9 0.00 0.00 0.00 73 1019.4
20220627044330 78 310 2.6 2.6 0.00 0.00 0.00 73 1019.4
20220627043829 78 201 2.6 5.2 0.00 0.00 0.00 72 1019.6
20220627043327 78 225 0.9 0.9 0.00 0.00 0.00 72 1019.5
20220627042826 79 225 1.7 1.7 0.00 0.00 0.00 72 1019.6
20220627042325 79 162 5.2 7.0 0.00 0.00 0.00 71 1019.7
20220627041825 79 327 0.9 1.7 0.00 0.00 0.00 71 1019.5
20220627041323 79 277 2.6 2.6 0.00 0.00 0.00 71 1019.6
20220627040822 79 300 1.7 1.7 0.00 0.00 0.00 71 1019.6
20220627040321 79 309 1.7 1.7 0.00 0.00 0.00 71 1019.4
20220627035820 79 242 1.7 1.7 0.00 0.00 0.00 70 1019.4
20220627035319 79 241 3.5 6.1 0.00 0.00 0.00 70 1019.4
20220627034818 79 343 0.9 0.9 0.00 0.00 0.00 70 1019.6
20220627034317 79 179 0.9 1.7 0.00 0.00 0.00 70 1019.4
20220627033817 80 289 0.0 0.9 0.00 0.00 0.00 69 1019.4
20220627033315 80 101 2.6 2.6 0.00 0.00 0.00 69 1019.4
20220627032814 80 103 1.7 1.7 0.00 0.00 0.00 69 1019.4
20220627032315 80 93 1.7 1.7 0.00 0.00 0.00 68 1019.5
20220627031814 80 68 1.7 1.7 0.00 0.00 0.00 68 1019.2
20220627031313 80 258 0.9 1.7 0.00 0.00 0.00 67 1019.1
20220627030813 80 139 2.6 4.3 0.00 0.00 0.00 67 1019.5
20220627030311 81 232 2.6 2.6 0.00 0.00 0.00 66 1019.3
20220627025809 81 148 0.9 0.9 0.00 0.00 0.00 65 1019.5
20220627025308 81 151 1.7 2.6 0.00 0.00 0.00 65 1019.3
20220627024807 81 299 0.0 0.0 0.00 0.00 0.00 63 1019.2
20220627024306 81 218 0.9 0.9 0.00 0.00 0.00 63 1019.5
20220627023804 81 125 1.7 1.7 0.00 0.00 0.00 62 1019.3
20220627023302 82 307 0.0 0.9 0.00 0.00 0.00 61 1019.3
20220627022801 82 359 0.9 0.9 0.00 0.00 0.00 60 1019.1
20220627022259 82 153 0.0 0.9 0.00 0.00 0.00 58 1019.4
20220627021758 82 354 0.0 0.0 0.00 0.00 0.00 57 1019.0
20220627021258 83 315 0.0 0.0 0.00 0.00 0.00 56 1019.1
20220627020758 83 36 0.9 0.9 0.00 0.00 0.00 55 1019.2
20220627020257 83 38 0.0 0.0 0.00 0.00 0.00 53 1018.9
20220627015756 84 265 0.9 0.9 0.00 0.00 0.00 52 1019.0
20220627015254 84 325 0.9 0.9 0.00 0.00 0.00 51 1018.8
20220627014754 84 173 0.0 0.9 0.00 0.00 0.00 49 1018.8
20220627014253 84 358 0.0 0.0 0.00 0.00 0.00 50 1018.5
20220627013752 84 348 0.0 0.0 0.00 0.00 0.00 50 1018.5
20220627013251 84 255 1.7 1.7 0.00 0.00 0.00 50 1018.4
20220627012750 85 340 0.0 0.0 0.00 0.00 0.00 50 1017.9
20220627012249 85 342 0.0 0.0 0.00 0.00 0.00 50 1018.1
20220627011748 85 26 0.0 0.0 0.00 0.00 0.00 49 1018.4
20220627011247 85 259 0.0 0.9 0.00 0.00 0.00 50 1018.0
20220627010746 86 347 0.0 0.0 0.00 0.00 0.00 49 1018.3
20220627010246 86 309 0.0 0.0 0.00 0.00 0.00 49 1018.3
20220627005745 86 0 0.0 0.0 0.00 0.00 0.00 49 1018.2
20220627005245 86 4 0.0 0.0 0.00 0.00 0.00 48 1018.1
20220627004744 86 21 0.0 0.0 0.00 0.00 0.00 48 1018.0
20220627004243 87 1 0.0 0.0 0.00 0.00 0.00 47 1018.2
20220627003742 87 31 0.0 0.9 0.00 0.00 0.00 47 1018.2
20220627003241 87 146 0.0 0.9 0.00 0.00 0.00 47 1018.0
20220627002741 87 3 0.0 0.0 0.00 0.00 0.00 46 1018.2
20220627002240 87 349 0.0 0.0 0.00 0.00 0.00 46 1018.1
20220627001740 87 138 0.0 0.9 0.00 0.00 0.00 45 1018.0
20220627001239 88 6 0.9 0.9 0.00 0.00 0.00 45 1018.1
20220627000738 88 59 1.7 1.7 0.00 0.00 0.00 44 1018.0
20220627000239 88 51 0.0 0.9 0.00 0.00 0.00 45 1017.8
20220626235737 88 143 0.9 0.9 0.00 0.00 0.00 45 1017.9
20220626235236 88 58 0.0 0.9 0.00 0.00 0.00 44 1018.0
20220626234735 88 20 0.0 0.9 0.00 0.00 0.00 43 1018.1
20220626234234 89 357 0.0 0.0 0.00 0.00 0.00 43 1018.1
20220626233733 89 14 0.0 0.9 0.00 0.00 0.00 42 1018.3
20220626233232 89 342 0.0 0.0 0.00 0.00 0.00 42 1017.9
20220626232732 89 337 0.0 0.0 0.00 0.00 0.00 42 1017.6
20220626232230 90 294 0.0 0.9 0.00 0.00 0.00 41 1017.7
20220626231729 90 339 0.0 0.0 0.00 0.00 0.00 43 1017.9
20220626231228 89 355 0.0 0.0 0.00 0.00 0.00 42 1018.0
20220626230727 90 8 0.0 0.9 0.00 0.00 0.00 42 1017.8
20220626230226 91 356 0.9 0.9 0.00 0.00 0.00 41 1018.1
20220626225725 93 355 0.0 0.0 0.00 0.00 0.00 38 1018.0
20220626225224 94 242 0.0 0.9 0.00 0.00 0.00 37 1017.9
20220626224723 95 329 0.0 0.0 0.00 0.00 0.00 37 1018.1
20220626224222 96 323 0.0 0.0 0.00 0.00 0.00 34 1018.0
20220626223721 96 297 0.9 0.9 0.00 0.00 0.00 35 1018.0
20220626223219 96 8 0.0 0.9 0.00 0.00 0.00 34 1017.8
20220626222719 95 27 0.0 0.9 0.00 0.00 0.00 35 1018.0
20220626222218 94 334 0.9 0.9 0.00 0.00 0.00 35 1017.8
20220626221716 95 219 2.6 2.6 0.00 0.00 0.00 34 1018.0
20220626221216 95 283 0.9 0.9 0.00 0.00 0.00 34 1018.0
20220626220716 96 359 0.9 0.9 0.00 0.00 0.00 34 1018.1
20220626220215 95 331 0.0 0.9 0.00 0.00 0.00 33 1018.0
20220626215714 95 342 0.0 0.0 0.00 0.00 0.00 33 1018.3
20220626215213 94 348 0.0 0.0 0.00 0.00 0.00 35 1018.3
20220626214712 93 225 0.9 1.7 0.00 0.00 0.00 35 1018.3
20220626214211 95 328 0.9 0.9 0.00 0.00 0.00 33 1018.4
20220626213711 95 251 1.7 1.7 0.00 0.00 0.00 34 1018.6
20220626213211 95 266 0.9 0.9 0.00 0.00 0.00 35 1018.3
20220626212712 96 335 1.7 1.7 0.00 0.00 0.00 34 1018.5
20220626212210 96 3 0.9 0.9 0.00 0.00 0.00 32 1018.4
20220626211710 97 119 2.6 4.3 0.00 0.00 0.00 32 1018.4
20220626211209 97 303 0.9 0.9 0.00 0.00 0.00 32 1018.5
20220626210708 97 339 0.0 0.0 0.00 0.00 0.00 32 1018.4
20220626210207 96 294 0.9 0.9 0.00 0.00 0.00 32 1018.6